Time,TemperatureF,DewpointF,PressureIn,WindDirection,WindDirectionDegrees,WindSpeedMPH,WindSpeedGustMPH,Humidity,HourlyPrecipIn,Conditions,Clouds,dailyrainin,SoftwareType,DateUTC
2013-03-04 00:05:00,28.4,18.5,29.76,NNW,337,2.0,-999.0,66,-99.99,,,0.00,Acu-Link.com,2013-03-04 05:05:00,
2013-03-04 00:20:00,28.4,18.9,29.76,South,180,1.1,-999.0,67,-99.99,,,0.00,Acu-Link.com,2013-03-04 05:20:00,
2013-03-04 00:35:00,28.4,18.5,29.76,NNW,337,0.0,-999.0,66,-99.99,,,0.00,Acu-Link.com,2013-03-04 05:35:00,
2013-03-04 00:50:00,28.4,20.2,29.77,North,0,1.6,-999.0,71,-99.99,,,0.00,Acu-Link.com,2013-03-04 05:50:00,
2013-03-04 01:05:00,26.6,18.5,29.77,NNE,22,1.1,-999.0,71,-99.99,,,0.00,Acu-Link.com,2013-03-04 06:05:00,
2013-03-04 01:20:00,26.6,18.8,29.77,NNE,22,2.0,-999.0,72,-99.99,,,0.00,Acu-Link.com,2013-03-04 06:20:00,
2013-03-04 01:36:00,26.6,19.1,29.78,NNE,22,1.6,-999.0,73,-99.99,,,0.00,Acu-Link.com,2013-03-04 06:36:00,
2013-03-04 01:51:00,26.6,19.5,29.78,NNE,22,1.6,-999.0,74,-99.99,,,0.00,Acu-Link.com,2013-03-04 06:51:00,
2013-03-04 02:06:00,24.8,18.0,29.78,North,0,0.0,-999.0,75,-99.99,,,0.00,Acu-Link.com,2013-03-04 07:06:00,
2013-03-04 02:21:00,23.0,16.9,29.79,NW,315,0.0,-999.0,77,-99.99,,,0.00,Acu-Link.com,2013-03-04 07:21:00,
2013-03-04 02:36:00,26.6,19.1,29.79,South,180,0.0,-999.0,73,-99.99,,,0.00,Acu-Link.com,2013-03-04 07:36:00,
2013-03-04 02:52:00,26.6,18.2,29.80,NW,315,2.0,-999.0,70,-99.99,,,0.00,Acu-Link.com,2013-03-04 07:52:00,
2013-03-04 03:07:00,26.6,18.5,29.80,NNE,22,1.6,-999.0,71,-99.99,,,0.00,Acu-Link.com,2013-03-04 08:07:00,
2013-03-04 03:22:00,26.6,20.1,29.79,NNE,22,1.6,-999.0,76,-99.99,,,0.00,Acu-Link.com,2013-03-04 08:22:00,
2013-03-04 03:37:00,26.6,18.5,29.80,West,270,1.6,-999.0,71,-99.99,,,0.00,Acu-Link.com,2013-03-04 08:37:00,
2013-03-04 03:53:00,26.6,16.8,29.79,SW,225,1.6,-999.0,66,-99.99,,,0.00,Acu-Link.com,2013-03-04 08:53:00,
2013-03-04 04:19:00,26.6,16.8,29.80,WSW,247,0.0,-999.0,66,-99.99,,,0.00,Acu-Link.com,2013-03-04 09:19:00,
2013-03-04 04:34:00,26.6,19.5,29.81,NW,315,0.0,-999.0,74,-99.99,,,0.00,Acu-Link.com,2013-03-04 09:34:00,
2013-03-04 04:50:00,24.8,17.7,29.83,NNE,22,0.0,-999.0,74,-99.99,,,0.00,Acu-Link.com,2013-03-04 09:50:00,
2013-03-04 05:05:00,23.0,17.5,29.83,NNE,22,1.6,-999.0,79,-99.99,,,0.00,Acu-Link.com,2013-03-04 10:05:00,
2013-03-04 05:20:00,23.0,17.8,29.83,NNE,22,1.1,-999.0,80,-99.99,,,0.00,Acu-Link.com,2013-03-04 10:20:00,
2013-03-04 05:35:00,23.0,18.1,29.83,NNE,22,0.0,-999.0,81,-99.99,,,0.00,Acu-Link.com,2013-03-04 10:35:00,
2013-03-04 05:50:00,23.0,18.9,29.84,NNE,22,1.1,-999.0,84,-99.99,,,0.00,Acu-Link.com,2013-03-04 10:50:00,
2013-03-04 06:06:00,23.0,19.2,29.84,NNE,22,1.1,-999.0,85,-99.99,,,0.00,Acu-Link.com,2013-03-04 11:06:00,
2013-03-04 06:21:00,23.0,19.2,51.35,NNE,22,1.1,-999.0,85,-99.99,,,0.00,Acu-Link.com,2013-03-04 11:21:00,
2013-03-04 06:36:00,23.0,19.4,29.85,NNE,22,2.0,-999.0,86,-99.99,,,0.00,Acu-Link.com,2013-03-04 11:36:00,
2013-03-04 06:52:00,23.0,19.4,29.85,NNE,22,0.0,-999.0,86,-99.99,,,0.00,Acu-Link.com,2013-03-04 11:52:00,
2013-03-04 07:07:00,23.0,19.4,29.86,NNE,22,1.1,-999.0,86,-99.99,,,0.00,Acu-Link.com,2013-03-04 12:07:00,
2013-03-04 07:22:00,23.0,18.9,29.87,NNE,22,0.0,-999.0,84,-99.99,,,0.00,Acu-Link.com,2013-03-04 12:22:00,
2013-03-04 07:37:00,24.8,19.8,29.88,NNE,22,0.0,-999.0,81,-99.99,,,0.00,Acu-Link.com,2013-03-04 12:37:00,
2013-03-04 07:52:00,28.4,20.5,29.89,SSE,157,1.6,-999.0,72,-99.99,,,0.00,Acu-Link.com,2013-03-04 12:52:00,
2013-03-04 08:08:00,33.8,19.8,29.89,NW,315,2.0,-999.0,56,-99.99,,,0.00,Acu-Link.com,2013-03-04 13:08:00,
2013-03-04 08:23:00,35.6,20.6,29.90,WNW,292,2.0,-999.0,54,-99.99,,,0.00,Acu-Link.com,2013-03-04 13:23:00,
2013-03-04 08:38:00,35.6,19.3,29.90,East,90,3.1,-999.0,51,-99.99,,,0.00,Acu-Link.com,2013-03-04 13:38:00,
2013-03-04 08:53:00,37.4,20.5,29.89,West,270,2.0,-999.0,50,-99.99,,,0.00,Acu-Link.com,2013-03-04 13:53:00,
2013-03-04 09:09:00,37.4,19.5,29.90,East,90,1.6,-999.0,48,-99.99,,,0.00,Acu-Link.com,2013-03-04 14:09:00,
2013-03-04 09:24:00,37.4,18.5,29.90,ESE,112,1.6,-999.0,46,-99.99,,,0.00,Acu-Link.com,2013-03-04 14:24:00,
2013-03-04 09:39:00,39.2,18.6,29.90,West,270,3.1,-999.0,43,-99.99,,,0.00,Acu-Link.com,2013-03-04 14:39:00,
2013-03-04 09:54:00,41.0,20.2,29.90,SSW,202,3.6,-999.0,43,-99.99,,,0.00,Acu-Link.com,2013-03-04 14:54:00,
2013-03-04 10:10:00,42.8,21.3,29.89,SSW,202,3.6,-999.0,42,-99.99,,,0.00,Acu-Link.com,2013-03-04 15:10:00,
2013-03-04 10:25:00,42.8,19.6,29.90,ESE,112,2.0,-999.0,39,-99.99,,,0.00,Acu-Link.com,2013-03-04 15:25:00,
2013-03-04 10:40:00,42.8,19.0,29.90,SW,225,3.6,-999.0,38,-99.99,,,0.00,Acu-Link.com,2013-03-04 15:40:00,
2013-03-04 10:55:00,44.6,18.0,29.90,ENE,67,2.7,-999.0,34,-99.99,,,0.00,Acu-Link.com,2013-03-04 15:55:00,
2013-03-04 11:11:00,44.6,17.3,29.90,East,90,3.1,-999.0,33,-99.99,,,0.00,Acu-Link.com,2013-03-04 16:11:00,
2013-03-04 11:26:00,42.8,15.7,29.90,SSE,157,4.7,-999.0,33,-99.99,,,0.00,Acu-Link.com,2013-03-04 16:26:00,
2013-03-04 11:41:00,44.6,20.0,29.89,South,180,5.1,-999.0,37,-99.99,,,0.00,Acu-Link.com,2013-03-04 16:41:00,
2013-03-04 11:56:00,46.4,21.6,29.89,SSE,157,1.6,-999.0,37,-99.99,,,0.00,Acu-Link.com,2013-03-04 16:56:00,
2013-03-04 12:11:00,46.4,20.3,29.88,WSW,247,3.6,-999.0,35,-99.99,,,0.00,Acu-Link.com,2013-03-04 17:11:00,
2013-03-04 12:26:00,46.4,17.4,29.88,SSW,202,2.7,-999.0,31,-99.99,,,0.00,Acu-Link.com,2013-03-04 17:26:00,
2013-03-04 12:42:00,50.0,21.3,29.87,South,180,4.0,-999.0,32,-99.99,,,0.00,Acu-Link.com,2013-03-04 17:42:00,
2013-03-04 12:57:00,48.2,20.5,29.87,ENE,67,2.0,-999.0,33,-99.99,,,0.00,Acu-Link.com,2013-03-04 17:57:00,
2013-03-04 13:12:00,46.4,16.7,29.85,SSW,202,6.3,-999.0,30,-99.99,,,0.00,Acu-Link.com,2013-03-04 18:12:00,
2013-03-04 13:28:00,51.8,21.4,29.85,NW,315,3.1,-999.0,30,-99.99,,,0.00,Acu-Link.com,2013-03-04 18:28:00,
2013-03-04 13:43:00,50.0,19.0,29.84,NNW,337,3.1,-999.0,29,-99.99,,,0.00,Acu-Link.com,2013-03-04 18:43:00,
2013-03-04 13:58:00,50.0,19.0,29.83,SSW,202,5.6,-999.0,29,-99.99,,,0.00,Acu-Link.com,2013-03-04 18:58:00,
2013-03-04 14:14:00,50.0,17.4,29.82,South,180,3.6,-999.0,27,-99.99,,,0.00,Acu-Link.com,2013-03-04 19:14:00,
2013-03-04 14:29:00,51.8,18.0,29.82,SSE,157,3.1,-999.0,26,-99.99,,,0.00,Acu-Link.com,2013-03-04 19:29:00,
2013-03-04 14:44:00,51.8,20.6,29.82,South,180,4.7,-999.0,29,-99.99,,,0.00,Acu-Link.com,2013-03-04 19:44:00,
2013-03-04 14:59:00,51.8,18.0,29.82,SE,135,3.6,-999.0,26,-99.99,,,0.00,Acu-Link.com,2013-03-04 19:59:00,
2013-03-04 15:15:00,51.8,19.7,29.82,SSW,202,5.1,-999.0,28,-99.99,,,0.00,Acu-Link.com,2013-03-04 20:15:00,
2013-03-04 15:30:00,51.8,18.0,29.81,South,180,3.6,-999.0,26,-99.99,,,0.00,Acu-Link.com,2013-03-04 20:30:00,
2013-03-04 15:45:00,51.8,17.1,29.81,South,180,3.1,-999.0,25,-99.99,,,0.00,Acu-Link.com,2013-03-04 20:45:00,
2013-03-04 16:00:00,51.8,16.2,29.80,South,180,3.6,-999.0,24,-99.99,,,0.00,Acu-Link.com,2013-03-04 21:00:00,
2013-03-04 16:16:00,51.8,18.0,29.80,South,180,2.7,-999.0,26,-99.99,,,0.00,Acu-Link.com,2013-03-04 21:16:00,
2013-03-04 16:31:00,51.8,18.0,29.79,WSW,247,2.0,-999.0,26,-99.99,,,0.00,Acu-Link.com,2013-03-04 21:31:00,
2013-03-04 16:46:00,51.8,17.1,29.79,South,180,2.7,-999.0,25,-99.99,,,0.00,Acu-Link.com,2013-03-04 21:46:00,
2013-03-04 17:02:00,51.8,17.1,29.80,SSE,157,1.1,-999.0,25,-99.99,,,0.00,Acu-Link.com,2013-03-04 22:02:00,
2013-03-04 17:17:00,51.8,17.1,29.80,SSW,202,2.0,-999.0,25,-99.99,,,0.00,Acu-Link.com,2013-03-04 22:17:00,
2013-03-04 17:32:00,50.0,19.0,29.80,SSE,157,0.0,-999.0,29,-99.99,,,0.00,Acu-Link.com,2013-03-04 22:32:00,
2013-03-04 17:48:00,50.0,21.3,29.81,North,0,1.6,-999.0,32,-99.99,,,0.00,Acu-Link.com,2013-03-04 22:48:00,
2013-03-04 18:03:00,46.4,20.3,29.81,NE,45,0.0,-999.0,35,-99.99,,,0.00,Acu-Link.com,2013-03-04 23:03:00,
2013-03-04 18:18:00,44.6,22.4,29.81,NNE,22,1.6,-999.0,41,-99.99,,,0.00,Acu-Link.com,2013-03-04 23:18:00,
2013-03-04 18:33:00,44.6,22.9,29.80,NNE,22,0.0,-999.0,42,-99.99,,,0.00,Acu-Link.com,2013-03-04 23:33:00,
2013-03-04 18:48:00,42.8,24.0,29.82,North,0,0.0,-999.0,47,-99.99,,,0.00,Acu-Link.com,2013-03-04 23:48:00,
2013-03-04 19:04:00,41.0,23.8,29.82,NNE,22,2.0,-999.0,50,-99.99,,,0.00,Acu-Link.com,2013-03-05 00:04:00,
2013-03-04 19:19:00,41.0,25.2,29.82,NNE,22,1.1,-999.0,53,-99.99,,,0.00,Acu-Link.com,2013-03-05 00:19:00,
2013-03-04 19:34:00,39.2,24.4,29.82,NNE,22,0.0,-999.0,55,-99.99,,,0.00,Acu-Link.com,2013-03-05 00:34:00,
2013-03-04 19:49:00,39.2,24.8,29.82,North,0,0.0,-999.0,56,-99.99,,,0.00,Acu-Link.com,2013-03-05 00:49:00,
2013-03-04 20:05:00,37.4,23.2,29.82,NNW,337,0.0,-999.0,56,-99.99,,,0.00,Acu-Link.com,2013-03-05 01:05:00,
2013-03-04 20:20:00,37.4,23.2,29.82,NE,45,0.0,-999.0,56,-99.99,,,0.00,Acu-Link.com,2013-03-05 01:20:00,
2013-03-04 20:35:00,37.4,24.0,29.82,NNE,22,0.0,-999.0,58,-99.99,,,0.00,Acu-Link.com,2013-03-05 01:35:00,
2013-03-04 20:50:00,35.6,22.7,29.83,NNE,22,0.0,-999.0,59,-99.99,,,0.00,Acu-Link.com,2013-03-05 01:50:00,
2013-03-04 21:05:00,35.6,24.3,29.83,NNE,22,0.0,-999.0,63,-99.99,,,0.00,Acu-Link.com,2013-03-05 02:05:00,
2013-03-04 21:21:00,37.4,24.8,29.83,NW,315,0.0,-999.0,60,-99.99,,,0.00,Acu-Link.com,2013-03-05 02:21:00,
2013-03-04 21:36:00,39.2,25.7,29.84,NNW,337,1.6,-999.0,58,-99.99,,,0.00,Acu-Link.com,2013-03-05 02:36:00,
2013-03-04 21:51:00,39.2,25.7,29.83,WNW,292,0.0,-999.0,58,-99.99,,,0.00,Acu-Link.com,2013-03-05 02:51:00,
2013-03-04 22:06:00,39.2,27.3,29.83,NW,315,0.0,-999.0,62,-99.99,,,0.00,Acu-Link.com,2013-03-05 03:06:00,
2013-03-04 22:22:00,39.2,28.1,29.82,NW,315,0.0,-999.0,64,-99.99,,,0.00,Acu-Link.com,2013-03-05 03:22:00,
2013-03-04 22:37:00,39.2,28.1,29.83,NW,315,0.0,-999.0,64,-99.99,,,0.00,Acu-Link.com,2013-03-05 03:37:00,
2013-03-04 22:52:00,39.2,27.3,29.83,NW,315,0.0,-999.0,62,-99.99,,,0.00,Acu-Link.com,2013-03-05 03:52:00,
2013-03-04 23:07:00,39.2,27.3,29.82,NW,315,0.0,-999.0,62,-99.99,,,0.00,Acu-Link.com,2013-03-05 04:07:00,
2013-03-04 23:23:00,39.2,27.7,29.82,NW,315,0.0,-999.0,63,-99.99,,,0.00,Acu-Link.com,2013-03-05 04:23:00,
2013-03-04 23:38:00,41.0,28.6,29.82,NE,45,1.6,-999.0,61,-99.99,,,0.00,Acu-Link.com,2013-03-05 04:38:00,
2013-03-04 23:53:00,41.0,28.2,29.82,NW,315,1.1,-999.0,60,-99.99,,,0.00,Acu-Link.com,2013-03-05 04:53:00,